메인 페이지
METAR-TAF:

METAR-TAF

공항 :

펜서콜라, 플로리다, 미국

위도: 30-21-22N, 경도: 087-19-24W, 고도: 9m

현재 날씨관측

예보는 1 시간 54분 전, 23:31시(UTC)에 발표되었습니다.
북북서5kt
온도 13°C
습도 62%
기압 1017 hPa
시정 10km 이상
고도 25000ft 상공 구름 조금

METAR: KNPA 162331Z 33005KT 9999 FEW250 13/06 A3003 RMK T0133061

시각: 19:25 (01:25 UTC)

예보

예보 대상 시간: 16일 23시부터 17일 23시까지 (UTC)
10kt
시정 10km 이상
맑음
전환 중
17일 03시부터 17일 05시까지 (UTC)
10kt

TAF: KNPA 1623/1723 35010KT 9999 SKC QNH3001INS BECMG 1703/1705 01010KT QNH3002INS T10/1706Z T18/1720Z FN00216

4,000개 이상의 공항 관측 자료 및 예보 (METAR 및 TAF 보고).

지도상에서 검색 가능한 기상관측소가 노란 점과 빨간 점으로 표시되어 있습니다.

기상관측소 명을 보려면 표시 위로 마우스를 이동하세요.

날씨 관측과 예보를 보려면 클릭하세요.

지도 변경 : 확대하려면 엑스 표시가 있는 녹색 버튼, 축소하려면 빼기 표시가 있는 녹색 버튼, 다음 페이지의 지도를 보려면 녹색 화살표를 클릭하세요.


METAR-TAF: